Fredericksburg, Shannon Airport (KEZF)

NameShannon Airport
CityFredericksburg
CountryUnited States
ICAOKEZF
IATA
Altitude26 m
CoordinatesGoogle Map
Live Air TrafficLiveATC.net
METARKEZF 170955Z AUTO 35004KT 10SM OVC013 13/13 A3007 RMK AO2 T01280128
2018-10-17 09:55:00 Wind: North-Northwest (350°) 2.06 m/s - Visibility: 16093.4 m - Temperature: 13 °C - Dew point: 13 °C - Humidity: 100% - Pressure: 1018.29 hPa
Statistics

The table below shows the detailed information of all flights to/from Fredericksburg, Shannon Airport (KEZF).